x

Port Orford - 15 Nm West Of Port Orford, Or (46015) Wave Buoy

7:50pm - Sat 25th Oct 2014 All times are PDT. -7 hours from GMT.

  • Sig Wave height 17.4ft
  • Swell Direction
  • Peak Period 13s
  • Average Period 9s
  • Wind
    16mph, 22mph gusts
  • Sea Temp 60°f
  • Air Temp 60°f
  • Sea Pressure 1014.7mb
  • Port Orford - 15 Nm West Of Port Orford, Or
  • Port Orford - 15 Nm West Of Port Orford, Or

More Historic Weather Station data

Upgrade to MSW Pro to gain access to the past 30 days of data for over 8000 Wavebouys and Weather Stations around the globe.

Join Pro

Comparision Forecast

View Surf forecast
   
Sat 10/25 7:50pm 17.5ft 13s 9s 16 22 mph 1014.7mb 60f 60f
6:50pm  -   -   -  16 20 mph 1013.7mb 60f 61f
5:50pm 19ft 11s 9s 16 20 mph 1012.7mb 60f 60f
4:50pm  -   -   -  22 31 mph 1011.7mb 60f 59f
3:50pm 17.5ft 12s 8s 20 27 mph 1009.9mb 61f 58f
2:50pm  -   -   -  34 40 mph 1007.1mb 61f 60f
1:50pm  -   -   -  31 38 mph 1004.3mb 61f 60f
12:50pm 24.5ft 14s 9s 38 49 mph 1001.2mb 61f 60f
11:50am 26ft 12s 9s 38 47 mph 998.7mb 61f 61f
10:50am 26.5ft 13s 9s 40 51 mph 996.8mb 61f 62f
9:50am 25.5ft 13s 9s 40 49 mph 995.2mb 61f 61f
8:50am 27ft 11s 9s 47 56 mph 993mb 61f 60f
7:50am 24.5ft 11s 8s 47 56 mph 992.2mb 61f 59f
6:50am 21ft 11s 8s 49 63 mph 991.5mb 62f 61f
5:50am 19ft 10s 8s 43 54 mph 993.7mb 62f 62f
4:50am 16ft 10s 7s 38 49 mph 995.6mb 62f 61f
3:50am 15.5ft 11s 8s 40 49 mph 997.4mb 62f 59f
2:50am 15.5ft 10s 7s 34 45 mph 998.9mb 62f 58f
1:50am 14.5ft 9s 7s 34 40 mph 1000.4mb 62f 58f
12:50am 13ft 9s 7s 25 38 mph 1000.6mb 62f 62f
Fri 10/24 11:50pm 12ft 9s 7s 25 29 mph 1001.1mb 62f 62f
10:50pm 12ft 9s 7s 29 36 mph 1001.5mb 62f 63f
9:50pm 11ft 8s 6s 29 36 mph 1002.1mb 62f 63f
8:50pm 10.5ft 8s 6s 29 36 mph 1002.5mb 61f 63f
7:50pm 10ft 8s 6s 29 36 mph 1003.4mb 61f 63f
6:50pm 10ft 7s 6s 25 31 mph 1003.9mb 62f 63f
5:50pm 8ft 7s 6s 29 34 mph 1003.9mb 62f 64f
4:50pm 8ft 10s 6s 27 34 mph 1004.9mb 62f 63f
3:50pm 7.5ft 12s 5s 25 31 mph 1005.9mb 62f 63f
2:50pm 7ft 12s 7s 27 31 mph 1006.4mb 62f 62f
1:50pm 7.5ft 11s 8s 22 29 mph 1007.3mb 61f 61f
12:50pm 8ft 11s 9s 16 20 mph 1008.6mb 61f 57f
11:50am 8.5ft 11s 9s 13 16 mph 1009.3mb 61f 56f
10:50am 8ft 11s 8s 7 11 mph 1010.6mb 61f 57f
9:50am 9ft 11s 9s 7 11 mph 1010.9mb 61f 58f
8:50am 8ft 12s 9s 9 11 mph 1011mb 61f 58f
7:50am 8ft 11s 8s 11 16 mph 1011.5mb 61f 59f
6:50am 8.5ft 11s 8s 13 16 mph 1012.6mb 61f 59f
5:50am 8ft 11s 8s 16 18 mph 1013.6mb 61f 59f
4:50am 7.5ft 12s 8s 16 20 mph 1014mb 61f 59f
3:50am 7.5ft 12s 7s 16 20 mph 1014.5mb 61f 60f
2:50am 8ft 11s 8s 13 16 mph 1014.9mb 61f 60f
1:50am 8.5ft 12s 8s 13 18 mph 1015.2mb 61f 60f
12:50am 8.5ft 11s 7s 13 16 mph 1015.2mb 61f 60f
Thu 10/23 11:50pm 9ft 13s 8s 16 18 mph 1015.4mb 61f 60f
10:50pm 9ft 9s 7s 13 16 mph 1015.3mb 61f 61f
9:50pm 9ft 11s 8s 16 18 mph 1015.3mb 61f 60f
8:50pm 10ft 12s 8s 13 16 mph 1015.1mb 61f 60f
7:50pm 10ft 12s 8s 13 18 mph 1015mb 61f 61f
6:50pm 11ft 12s 8s 13 16 mph 1015mb 61f 61f
5:50pm 12ft 12s 9s 13 16 mph 1015.1mb 61f 61f
4:50pm 12ft 12s 9s 13 16 mph 1015mb 61f 62f
3:50pm 11ft 12s 9s 11 13 mph 1014.7mb 61f 61f
2:50pm 10.5ft 11s 9s 11 13 mph 1015mb 61f 62f
1:50pm 10.5ft 12s 8s 11 13 mph 1015.2mb 61f 62f
12:50pm 9.5ft 12s 8s 11 13 mph 1014.7mb 61f 61f
11:50am 10.5ft 13s 8s 13 16 mph 1014.4mb 61f 61f
10:50am 10.5ft 13s 8s 11 13 mph 1013.6mb 61f 61f
9:50am 10.5ft 13s 8s 13 16 mph 1013mb 61f 62f
8:50am 9.5ft 13s 7s 13 18 mph 1012.2mb 60f 62f
7:50am 10.5ft 13s 7s 16 20 mph 1011.2mb 60f 61f
6:50am 12ft 13s 8s 18 22 mph 1011.1mb 60f 61f
5:50am 11ft 14s 7s 22 27 mph 1010.4mb 60f 59f
4:50am 12.5ft 13s 8s 18 22 mph 1009.7mb 60f 62f
3:50am 15ft 14s 9s 18 22 mph 1009.6mb 60f 62f
2:50am 13ft 14s 8s 18 22 mph 1009.9mb 60f 61f
1:50am 13ft 13s 8s 20 22 mph 1009.6mb 60f 61f
12:50am 15ft 13s 8s 16 20 mph 1010mb 60f 61f
Wed 10/22 11:50pm 15ft 12s 8s 18 20 mph 1009.8mb 60f 61f
10:50pm 15ft 13s 9s 16 18 mph 1009.6mb 60f 61f
9:50pm 15ft 14s 8s 16 20 mph 1009.3mb 60f 61f
8:50pm 14ft 14s 8s 18 25 mph 1009mb 60f 61f
7:50pm 14ft 14s 8s 20 22 mph 1009.2mb 60f 60f
6:50pm 13ft 8s 8s 22 27 mph 1008.9mb 60f 60f
5:50pm 15ft 14s 8s 18 22 mph 1008.4mb 60f 58f
4:50pm 14.5ft 15s 8s 9 13 mph 1009mb 60f 57f
3:50pm 15.5ft 8s 8s 11 16 mph 1009.6mb 60f 57f
2:50pm 17.5ft 15s 8s 9 16 mph 1009.6mb 60f 57f
1:50pm 17ft 15s 8s 38 47 mph 1007.3mb 60f 60f
12:50pm 17.5ft 16s 8s 36 47 mph 1008.1mb 60f 60f
11:50am 16ft 12s 7s 36 43 mph 1008.8mb 60f 60f
10:50am 15ft 14s 7s 36 43 mph 1009mb 60f 60f
9:50am 16ft 16s 7s 34 43 mph 1009.4mb 59f 60f
8:50am 15.5ft 8s 7s 36 45 mph 1009.7mb 59f 60f
7:50am 14ft 12s 7s 34 43 mph 1009.8mb 59f 59f
6:50am 14ft 12s 7s 36 45 mph 1010.1mb 59f 60f
5:50am 13ft 12s 7s 34 43 mph 1010.2mb 59f 60f
4:50am 13ft 12s 7s 34 40 mph 1010.4mb 59f 60f
3:50am 12.5ft 7s 7s 34 40 mph 1010.4mb 59f 60f